sensor_id;sensor_type;location;lat;lon;timestamp;P1;durP1;ratioP1;P2;durP2;ratioP2
76856;SDS011;69705;44.686;37.628;2023-08-20T00:02:13;11.80;;;3.75;;
76856;SDS011;69705;44.686;37.628;2023-08-20T00:04:40;14.48;;;3.80;;
76856;SDS011;69705;44.686;37.628;2023-08-20T00:07:09;13.67;;;3.73;;
76856;SDS011;69705;44.686;37.628;2023-08-20T00:09:35;10.82;;;3.90;;
76856;SDS011;69705;44.686;37.628;2023-08-20T00:12:02;12.18;;;3.65;;
76856;SDS011;69705;44.686;37.628;2023-08-20T00:17:34;9.57;;;3.70;;
76856;SDS011;69705;44.686;37.628;2023-08-20T00:20:02;11.70;;;4.00;;
76856;SDS011;69705;44.686;37.628;2023-08-20T00:22:39;10.30;;;3.63;;
76856;SDS011;69705;44.686;37.628;2023-08-20T00:25:08;11.45;;;3.90;;
76856;SDS011;69705;44.686;37.628;2023-08-20T00:27:35;10.05;;;3.65;;
76856;SDS011;69705;44.686;37.628;2023-08-20T00:30:02;13.50;;;3.85;;
76856;SDS011;69705;44.686;37.628;2023-08-20T00:32:30;12.03;;;3.90;;
76856;SDS011;69705;44.686;37.628;2023-08-20T00:34:56;9.27;;;3.60;;
76856;SDS011;69705;44.686;37.628;2023-08-20T00:37:25;10.70;;;3.92;;
76856;SDS011;69705;44.686;37.628;2023-08-20T00:39:52;12.30;;;3.90;;
76856;SDS011;69705;44.686;37.628;2023-08-20T00:42:19;9.35;;;4.07;;
76856;SDS011;69705;44.686;37.628;2023-08-20T00:44:46;12.27;;;3.87;;
76856;SDS011;69705;44.686;37.628;2023-08-20T00:47:13;10.23;;;4.10;;
76856;SDS011;69705;44.686;37.628;2023-08-20T00:49:40;10.63;;;4.00;;
76856;SDS011;69705;44.686;37.628;2023-08-20T00:52:08;9.90;;;4.00;;
76856;SDS011;69705;44.686;37.628;2023-08-20T00:54:35;12.90;;;3.92;;
76856;SDS011;69705;44.686;37.628;2023-08-20T00:57:02;10.67;;;4.07;;
76856;SDS011;69705;44.686;37.628;2023-08-20T00:59:31;12.10;;;4.35;;
76856;SDS011;69705;44.686;37.628;2023-08-20T01:01:59;11.80;;;3.80;;
76856;SDS011;69705;44.686;37.628;2023-08-20T01:04:27;11.63;;;3.88;;
76856;SDS011;69705;44.686;37.628;2023-08-20T01:10:00;11.40;;;4.07;;
76856;SDS011;69705;44.686;37.628;2023-08-20T01:12:40;11.48;;;4.20;;
76856;SDS011;69705;44.686;37.628;2023-08-20T01:15:07;8.70;;;3.60;;
76856;SDS011;69705;44.686;37.628;2023-08-20T01:17:40;10.52;;;3.80;;
76856;SDS011;69705;44.686;37.628;2023-08-20T01:20:08;10.48;;;4.00;;
76856;SDS011;69705;44.686;37.628;2023-08-20T01:22:48;12.60;;;4.23;;
76856;SDS011;69705;44.686;37.628;2023-08-20T01:25:30;12.32;;;3.70;;
76856;SDS011;69705;44.686;37.628;2023-08-20T01:28:27;8.88;;;4.05;;
76856;SDS011;69705;44.686;37.628;2023-08-20T01:30:55;13.43;;;4.47;;
76856;SDS011;69705;44.686;37.628;2023-08-20T01:33:25;12.07;;;4.15;;
76856;SDS011;69705;44.686;37.628;2023-08-20T01:35:52;11.57;;;4.03;;
76856;SDS011;69705;44.686;37.628;2023-08-20T01:38:20;11.18;;;4.15;;
76856;SDS011;69705;44.686;37.628;2023-08-20T01:40:47;13.60;;;4.20;;
76856;SDS011;69705;44.686;37.628;2023-08-20T01:43:15;9.95;;;4.28;;
76856;SDS011;69705;44.686;37.628;2023-08-20T01:45:42;8.50;;;4.10;;
76856;SDS011;69705;44.686;37.628;2023-08-20T01:48:08;11.77;;;4.00;;
76856;SDS011;69705;44.686;37.628;2023-08-20T01:50:35;8.88;;;4.35;;
76856;SDS011;69705;44.686;37.628;2023-08-20T01:53:02;10.95;;;4.05;;
76856;SDS011;69705;44.686;37.628;2023-08-20T01:55:29;11.48;;;4.10;;
76856;SDS011;69705;44.686;37.628;2023-08-20T01:57:56;10.93;;;4.10;;
76856;SDS011;69705;44.686;37.628;2023-08-20T02:00:23;8.57;;;4.30;;
76856;SDS011;69705;44.686;37.628;2023-08-20T02:02:50;10.77;;;4.05;;
76856;SDS011;69705;44.686;37.628;2023-08-20T02:05:17;14.85;;;4.30;;
76856;SDS011;69705;44.686;37.628;2023-08-20T02:07:44;9.10;;;3.97;;
76856;SDS011;69705;44.686;37.628;2023-08-20T02:10:11;11.50;;;4.20;;
76856;SDS011;69705;44.686;37.628;2023-08-20T02:12:38;10.27;;;4.00;;
76856;SDS011;69705;44.686;37.628;2023-08-20T02:15:05;11.52;;;4.13;;
76856;SDS011;69705;44.686;37.628;2023-08-20T02:17:35;10.23;;;4.30;;
76856;SDS011;69705;44.686;37.628;2023-08-20T02:20:02;9.80;;;3.88;;
76856;SDS011;69705;44.686;37.628;2023-08-20T02:22:30;10.75;;;4.55;;
76856;SDS011;69705;44.686;37.628;2023-08-20T02:24:57;10.60;;;4.23;;
76856;SDS011;69705;44.686;37.628;2023-08-20T02:27:24;11.90;;;4.55;;
76856;SDS011;69705;44.686;37.628;2023-08-20T02:29:51;8.52;;;4.00;;
76856;SDS011;69705;44.686;37.628;2023-08-20T02:32:18;12.32;;;4.03;;
76856;SDS011;69705;44.686;37.628;2023-08-20T02:34:48;9.45;;;4.00;;
76856;SDS011;69705;44.686;37.628;2023-08-20T02:37:17;13.10;;;4.53;;
76856;SDS011;69705;44.686;37.628;2023-08-20T02:39:44;10.02;;;4.10;;
76856;SDS011;69705;44.686;37.628;2023-08-20T02:42:13;8.77;;;4.10;;
76856;SDS011;69705;44.686;37.628;2023-08-20T02:44:40;12.55;;;4.70;;
76856;SDS011;69705;44.686;37.628;2023-08-20T02:47:07;9.68;;;4.30;;
76856;SDS011;69705;44.686;37.628;2023-08-20T02:49:34;12.13;;;4.20;;
76856;SDS011;69705;44.686;37.628;2023-08-20T02:52:03;11.75;;;4.55;;
76856;SDS011;69705;44.686;37.628;2023-08-20T02:54:30;8.15;;;3.92;;
76856;SDS011;69705;44.686;37.628;2023-08-20T02:56:58;12.15;;;4.80;;
76856;SDS011;69705;44.686;37.628;2023-08-20T02:59:25;9.27;;;4.63;;
76856;SDS011;69705;44.686;37.628;2023-08-20T03:01:52;11.40;;;4.10;;
76856;SDS011;69705;44.686;37.628;2023-08-20T03:04:19;10.63;;;4.18;;
76856;SDS011;69705;44.686;37.628;2023-08-20T03:06:46;10.38;;;4.47;;
76856;SDS011;69705;44.686;37.628;2023-08-20T03:09:13;9.77;;;4.18;;
76856;SDS011;69705;44.686;37.628;2023-08-20T03:11:39;10.48;;;4.43;;
76856;SDS011;69705;44.686;37.628;2023-08-20T03:14:06;11.47;;;4.33;;
76856;SDS011;69705;44.686;37.628;2023-08-20T03:16:32;12.75;;;4.40;;
76856;SDS011;69705;44.686;37.628;2023-08-20T03:18:59;10.85;;;4.70;;
76856;SDS011;69705;44.686;37.628;2023-08-20T03:21:26;9.65;;;4.50;;
76856;SDS011;69705;44.686;37.628;2023-08-20T03:23:52;10.07;;;4.50;;
76856;SDS011;69705;44.686;37.628;2023-08-20T03:26:19;9.10;;;4.90;;
76856;SDS011;69705;44.686;37.628;2023-08-20T03:28:45;10.90;;;5.00;;
76856;SDS011;69705;44.686;37.628;2023-08-20T03:31:12;9.27;;;4.80;;
76856;SDS011;69705;44.686;37.628;2023-08-20T03:33:41;10.95;;;4.93;;
76856;SDS011;69705;44.686;37.628;2023-08-20T03:36:08;9.05;;;4.70;;
76856;SDS011;69705;44.686;37.628;2023-08-20T03:38:35;9.20;;;4.50;;
76856;SDS011;69705;44.686;37.628;2023-08-20T03:41:01;10.18;;;4.80;;
76856;SDS011;69705;44.686;37.628;2023-08-20T03:43:29;12.98;;;4.70;;
76856;SDS011;69705;44.686;37.628;2023-08-20T03:45:55;10.05;;;4.70;;
76856;SDS011;69705;44.686;37.628;2023-08-20T03:48:22;11.57;;;4.43;;
76856;SDS011;69705;44.686;37.628;2023-08-20T03:50:49;10.27;;;4.63;;
76856;SDS011;69705;44.686;37.628;2023-08-20T03:53:15;11.68;;;4.90;;
76856;SDS011;69705;44.686;37.628;2023-08-20T03:55:47;11.80;;;5.03;;
76856;SDS011;69705;44.686;37.628;2023-08-20T03:58:15;9.13;;;4.30;;
76856;SDS011;69705;44.686;37.628;2023-08-20T04:00:43;9.82;;;4.55;;
76856;SDS011;69705;44.686;37.628;2023-08-20T04:03:10;11.23;;;4.30;;
76856;SDS011;69705;44.686;37.628;2023-08-20T04:05:38;11.52;;;5.00;;
76856;SDS011;69705;44.686;37.628;2023-08-20T04:08:05;11.20;;;4.70;;
76856;SDS011;69705;44.686;37.628;2023-08-20T04:10:33;10.30;;;4.65;;
76856;SDS011;69705;44.686;37.628;2023-08-20T04:13:00;9.45;;;4.60;;
76856;SDS011;69705;44.686;37.628;2023-08-20T04:15:26;10.00;;;4.27;;
76856;SDS011;69705;44.686;37.628;2023-08-20T04:17:54;12.13;;;4.75;;
76856;SDS011;69705;44.686;37.628;2023-08-20T04:20:20;11.55;;;5.00;;
76856;SDS011;69705;44.686;37.628;2023-08-20T04:22:47;12.30;;;4.80;;
76856;SDS011;69705;44.686;37.628;2023-08-20T04:25:15;15.80;;;4.53;;
76856;SDS011;69705;44.686;37.628;2023-08-20T04:27:42;13.00;;;4.33;;
76856;SDS011;69705;44.686;37.628;2023-08-20T04:30:09;10.40;;;4.28;;
76856;SDS011;69705;44.686;37.628;2023-08-20T04:32:37;13.35;;;4.25;;
76856;SDS011;69705;44.686;37.628;2023-08-20T04:35:04;11.55;;;4.20;;
76856;SDS011;69705;44.686;37.628;2023-08-20T04:37:33;10.43;;;4.28;;
76856;SDS011;69705;44.686;37.628;2023-08-20T04:40:00;10.87;;;4.13;;
76856;SDS011;69705;44.686;37.628;2023-08-20T04:42:29;9.85;;;3.70;;
76856;SDS011;69705;44.686;37.628;2023-08-20T04:44:56;10.13;;;4.40;;
76856;SDS011;69705;44.686;37.628;2023-08-20T04:47:24;11.10;;;4.28;;
76856;SDS011;69705;44.686;37.628;2023-08-20T04:49:51;10.80;;;4.50;;
76856;SDS011;69705;44.686;37.628;2023-08-20T04:52:19;9.97;;;4.10;;
76856;SDS011;69705;44.686;37.628;2023-08-20T04:54:47;9.23;;;3.95;;
76856;SDS011;69705;44.686;37.628;2023-08-20T04:57:14;10.13;;;4.03;;
76856;SDS011;69705;44.686;37.628;2023-08-20T04:59:41;10.70;;;3.83;;
76856;SDS011;69705;44.686;37.628;2023-08-20T05:02:34;14.32;;;4.10;;
76856;SDS011;69705;44.686;37.628;2023-08-20T05:05:02;11.53;;;4.00;;
76856;SDS011;69705;44.686;37.628;2023-08-20T05:07:29;10.07;;;3.75;;
76856;SDS011;69705;44.686;37.628;2023-08-20T05:09:56;16.95;;;4.10;;
76856;SDS011;69705;44.686;37.628;2023-08-20T05:12:22;12.13;;;3.55;;
76856;SDS011;69705;44.686;37.628;2023-08-20T05:14:49;13.80;;;3.58;;
76856;SDS011;69705;44.686;37.628;2023-08-20T05:17:16;8.57;;;3.40;;
76856;SDS011;69705;44.686;37.628;2023-08-20T05:19:43;12.57;;;3.75;;
76856;SDS011;69705;44.686;37.628;2023-08-20T05:22:10;8.40;;;3.20;;
76856;SDS011;69705;44.686;37.628;2023-08-20T05:24:38;9.25;;;3.30;;
76856;SDS011;69705;44.686;37.628;2023-08-20T05:29:45;8.50;;;3.10;;
76856;SDS011;69705;44.686;37.628;2023-08-20T05:32:12;11.13;;;2.83;;
76856;SDS011;69705;44.686;37.628;2023-08-20T05:34:39;8.65;;;3.30;;
76856;SDS011;69705;44.686;37.628;2023-08-20T05:37:05;15.38;;;7.80;;
76856;SDS011;69705;44.686;37.628;2023-08-20T05:39:40;9.23;;;3.58;;
76856;SDS011;69705;44.686;37.628;2023-08-20T05:42:08;11.83;;;4.17;;
76856;SDS011;69705;44.686;37.628;2023-08-20T05:44:36;10.98;;;3.00;;
76856;SDS011;69705;44.686;37.628;2023-08-20T05:47:03;9.85;;;3.03;;
76856;SDS011;69705;44.686;37.628;2023-08-20T05:49:32;11.65;;;3.20;;
76856;SDS011;69705;44.686;37.628;2023-08-20T05:51:58;9.77;;;2.80;;
76856;SDS011;69705;44.686;37.628;2023-08-20T05:54:27;10.57;;;2.70;;
76856;SDS011;69705;44.686;37.628;2023-08-20T05:56:56;6.75;;;2.20;;
76856;SDS011;69705;44.686;37.628;2023-08-20T05:59:24;6.75;;;2.30;;
76856;SDS011;69705;44.686;37.628;2023-08-20T06:01:52;11.07;;;2.33;;
76856;SDS011;69705;44.686;37.628;2023-08-20T06:04:20;6.00;;;1.92;;
76856;SDS011;69705;44.686;37.628;2023-08-20T06:06:47;8.17;;;2.40;;
76856;SDS011;69705;44.686;37.628;2023-08-20T06:09:13;14.38;;;2.72;;
76856;SDS011;69705;44.686;37.628;2023-08-20T06:11:40;10.10;;;2.53;;
76856;SDS011;69705;44.686;37.628;2023-08-20T06:14:07;10.95;;;2.50;;
76856;SDS011;69705;44.686;37.628;2023-08-20T06:16:33;10.38;;;2.72;;
76856;SDS011;69705;44.686;37.628;2023-08-20T06:19:00;7.53;;;2.53;;
76856;SDS011;69705;44.686;37.628;2023-08-20T06:21:27;7.68;;;2.30;;
76856;SDS011;69705;44.686;37.628;2023-08-20T06:23:53;10.15;;;2.65;;
76856;SDS011;69705;44.686;37.628;2023-08-20T06:26:20;8.52;;;2.40;;
76856;SDS011;69705;44.686;37.628;2023-08-20T06:28:47;8.30;;;2.65;;
76856;SDS011;69705;44.686;37.628;2023-08-20T06:31:13;9.97;;;2.20;;
76856;SDS011;69705;44.686;37.628;2023-08-20T06:33:40;7.88;;;2.30;;
76856;SDS011;69705;44.686;37.628;2023-08-20T06:36:07;8.85;;;2.20;;
76856;SDS011;69705;44.686;37.628;2023-08-20T06:38:33;6.82;;;2.13;;
76856;SDS011;69705;44.686;37.628;2023-08-20T06:41:00;7.57;;;2.00;;
76856;SDS011;69705;44.686;37.628;2023-08-20T06:43:27;11.03;;;2.30;;
76856;SDS011;69705;44.686;37.628;2023-08-20T06:45:53;7.50;;;1.90;;
76856;SDS011;69705;44.686;37.628;2023-08-20T06:48:20;8.98;;;2.10;;
76856;SDS011;69705;44.686;37.628;2023-08-20T06:50:48;11.15;;;2.20;;
76856;SDS011;69705;44.686;37.628;2023-08-20T06:53:14;7.40;;;1.88;;
76856;SDS011;69705;44.686;37.628;2023-08-20T06:55:41;8.97;;;1.97;;
76856;SDS011;69705;44.686;37.628;2023-08-20T06:58:08;8.07;;;1.90;;
76856;SDS011;69705;44.686;37.628;2023-08-20T07:00:35;5.80;;;1.85;;
76856;SDS011;69705;44.686;37.628;2023-08-20T07:03:01;7.47;;;2.10;;
76856;SDS011;69705;44.686;37.628;2023-08-20T07:05:29;8.50;;;2.00;;
76856;SDS011;69705;44.686;37.628;2023-08-20T07:07:56;12.30;;;2.00;;
76856;SDS011;69705;44.686;37.628;2023-08-20T07:10:22;13.93;;;2.08;;
76856;SDS011;69705;44.686;37.628;2023-08-20T07:12:49;8.02;;;2.03;;
76856;SDS011;69705;44.686;37.628;2023-08-20T07:15:16;8.20;;;2.08;;
76856;SDS011;69705;44.686;37.628;2023-08-20T07:17:42;8.98;;;2.10;;
76856;SDS011;69705;44.686;37.628;2023-08-20T07:20:09;9.03;;;2.30;;
76856;SDS011;69705;44.686;37.628;2023-08-20T07:22:36;6.95;;;2.10;;
76856;SDS011;69705;44.686;37.628;2023-08-20T07:25:02;7.50;;;1.80;;
76856;SDS011;69705;44.686;37.628;2023-08-20T07:27:29;6.18;;;2.00;;
76856;SDS011;69705;44.686;37.628;2023-08-20T07:29:56;7.55;;;1.95;;
76856;SDS011;69705;44.686;37.628;2023-08-20T07:32:23;8.03;;;2.07;;
76856;SDS011;69705;44.686;37.628;2023-08-20T07:34:49;7.82;;;2.20;;
76856;SDS011;69705;44.686;37.628;2023-08-20T07:37:16;6.35;;;2.13;;
76856;SDS011;69705;44.686;37.628;2023-08-20T07:39:43;8.00;;;3.85;;
76856;SDS011;69705;44.686;37.628;2023-08-20T07:42:10;8.57;;;2.08;;
76856;SDS011;69705;44.686;37.628;2023-08-20T07:44:38;8.40;;;2.00;;
76856;SDS011;69705;44.686;37.628;2023-08-20T07:47:04;7.75;;;1.90;;
76856;SDS011;69705;44.686;37.628;2023-08-20T07:49:31;10.40;;;2.63;;
76856;SDS011;69705;44.686;37.628;2023-08-20T07:51:58;10.27;;;2.50;;
76856;SDS011;69705;44.686;37.628;2023-08-20T07:54:24;8.50;;;2.15;;
76856;SDS011;69705;44.686;37.628;2023-08-20T07:56:52;9.13;;;2.10;;
76856;SDS011;69705;44.686;37.628;2023-08-20T07:59:19;6.53;;;2.08;;
76856;SDS011;69705;44.686;37.628;2023-08-20T08:01:46;11.55;;;4.53;;
76856;SDS011;69705;44.686;37.628;2023-08-20T08:04:12;7.90;;;3.05;;
76856;SDS011;69705;44.686;37.628;2023-08-20T08:06:39;8.20;;;2.00;;
76856;SDS011;69705;44.686;37.628;2023-08-20T08:09:19;8.43;;;1.83;;
76856;SDS011;69705;44.686;37.628;2023-08-20T08:11:56;9.10;;;2.00;;
76856;SDS011;69705;44.686;37.628;2023-08-20T08:14:24;8.40;;;2.00;;
76856;SDS011;69705;44.686;37.628;2023-08-20T08:16:51;8.57;;;1.80;;
76856;SDS011;69705;44.686;37.628;2023-08-20T08:19:18;12.05;;;2.42;;
76856;SDS011;69705;44.686;37.628;2023-08-20T08:21:46;10.07;;;2.10;;
76856;SDS011;69705;44.686;37.628;2023-08-20T08:24:13;12.30;;;2.10;;
76856;SDS011;69705;44.686;37.628;2023-08-20T08:26:40;8.65;;;2.30;;
76856;SDS011;69705;44.686;37.628;2023-08-20T08:29:07;21.35;;;2.25;;
76856;SDS011;69705;44.686;37.628;2023-08-20T08:31:34;8.88;;;2.35;;
76856;SDS011;69705;44.686;37.628;2023-08-20T08:34:01;13.57;;;2.33;;
76856;SDS011;69705;44.686;37.628;2023-08-20T08:36:29;8.68;;;2.10;;
76856;SDS011;69705;44.686;37.628;2023-08-20T08:38:56;11.13;;;2.90;;
76856;SDS011;69705;44.686;37.628;2023-08-20T08:41:23;9.70;;;2.40;;
76856;SDS011;69705;44.686;37.628;2023-08-20T08:43:51;7.93;;;2.20;;
76856;SDS011;69705;44.686;37.628;2023-08-20T08:46:19;9.80;;;2.10;;
76856;SDS011;69705;44.686;37.628;2023-08-20T08:48:47;9.27;;;2.35;;
76856;SDS011;69705;44.686;37.628;2023-08-20T08:51:15;8.27;;;2.20;;
76856;SDS011;69705;44.686;37.628;2023-08-20T08:53:42;9.15;;;2.10;;
76856;SDS011;69705;44.686;37.628;2023-08-20T08:56:10;12.02;;;2.30;;
76856;SDS011;69705;44.686;37.628;2023-08-20T08:58:37;16.50;;;3.33;;
76856;SDS011;69705;44.686;37.628;2023-08-20T09:01:04;9.82;;;2.22;;
76856;SDS011;69705;44.686;37.628;2023-08-20T09:03:31;8.75;;;2.45;;
76856;SDS011;69705;44.686;37.628;2023-08-20T09:06:01;7.97;;;2.05;;
76856;SDS011;69705;44.686;37.628;2023-08-20T09:08:33;6.88;;;2.53;;
76856;SDS011;69705;44.686;37.628;2023-08-20T09:11:00;8.10;;;2.47;;
76856;SDS011;69705;44.686;37.628;2023-08-20T09:13:37;7.97;;;2.65;;
76856;SDS011;69705;44.686;37.628;2023-08-20T09:16:06;9.25;;;2.60;;
76856;SDS011;69705;44.686;37.628;2023-08-20T09:18:44;7.43;;;3.15;;
76856;SDS011;69705;44.686;37.628;2023-08-20T09:21:13;7.75;;;2.67;;
76856;SDS011;69705;44.686;37.628;2023-08-20T09:23:40;6.30;;;2.40;;
76856;SDS011;69705;44.686;37.628;2023-08-20T09:26:11;6.82;;;2.45;;
76856;SDS011;69705;44.686;37.628;2023-08-20T09:28:40;6.95;;;2.35;;
76856;SDS011;69705;44.686;37.628;2023-08-20T09:31:12;5.85;;;2.30;;
76856;SDS011;69705;44.686;37.628;2023-08-20T09:33:52;6.38;;;2.38;;
76856;SDS011;69705;44.686;37.628;2023-08-20T09:36:32;7.45;;;2.40;;
76856;SDS011;69705;44.686;37.628;2023-08-20T09:39:03;9.37;;;2.50;;
76856;SDS011;69705;44.686;37.628;2023-08-20T09:41:30;8.85;;;2.42;;
76856;SDS011;69705;44.686;37.628;2023-08-20T09:43:58;8.63;;;2.50;;
76856;SDS011;69705;44.686;37.628;2023-08-20T09:46:26;9.35;;;2.55;;
76856;SDS011;69705;44.686;37.628;2023-08-20T09:48:57;9.63;;;2.70;;
76856;SDS011;69705;44.686;37.628;2023-08-20T09:51:24;10.50;;;2.80;;
76856;SDS011;69705;44.686;37.628;2023-08-20T09:53:56;9.50;;;2.38;;
76856;SDS011;69705;44.686;37.628;2023-08-20T09:56:53;11.85;;;2.60;;
76856;SDS011;69705;44.686;37.628;2023-08-20T09:59:25;7.72;;;2.38;;
76856;SDS011;69705;44.686;37.628;2023-08-20T10:01:53;9.50;;;2.78;;
76856;SDS011;69705;44.686;37.628;2023-08-20T10:04:23;6.47;;;2.40;;
76856;SDS011;69705;44.686;37.628;2023-08-20T10:06:50;12.05;;;2.83;;
76856;SDS011;69705;44.686;37.628;2023-08-20T10:09:21;10.77;;;2.58;;
76856;SDS011;69705;44.686;37.628;2023-08-20T10:11:48;7.15;;;2.30;;
76856;SDS011;69705;44.686;37.628;2023-08-20T10:14:16;7.82;;;2.58;;
76856;SDS011;69705;44.686;37.628;2023-08-20T10:16:43;8.10;;;2.23;;
76856;SDS011;69705;44.686;37.628;2023-08-20T10:19:10;8.13;;;2.50;;
76856;SDS011;69705;44.686;37.628;2023-08-20T10:21:43;8.00;;;2.70;;
76856;SDS011;69705;44.686;37.628;2023-08-20T10:24:18;7.40;;;2.25;;
76856;SDS011;69705;44.686;37.628;2023-08-20T10:26:46;5.72;;;2.33;;
76856;SDS011;69705;44.686;37.628;2023-08-20T10:29:34;7.50;;;2.40;;
76856;SDS011;69705;44.686;37.628;2023-08-20T10:32:11;6.88;;;2.25;;
76856;SDS011;69705;44.686;37.628;2023-08-20T10:34:39;8.07;;;2.42;;
76856;SDS011;69705;44.686;37.628;2023-08-20T10:37:13;8.18;;;2.42;;
76856;SDS011;69705;44.686;37.628;2023-08-20T10:39:41;6.70;;;2.55;;
76856;SDS011;69705;44.686;37.628;2023-08-20T10:44:58;9.48;;;2.50;;
76856;SDS011;69705;44.686;37.628;2023-08-20T10:50:23;7.60;;;2.40;;
76856;SDS011;69705;44.686;37.628;2023-08-20T10:52:55;10.23;;;2.60;;
76856;SDS011;69705;44.686;37.628;2023-08-20T10:55:23;6.03;;;2.40;;
76856;SDS011;69705;44.686;37.628;2023-08-20T10:57:59;7.18;;;2.10;;
76856;SDS011;69705;44.686;37.628;2023-08-20T11:00:28;17.38;;;2.90;;
76856;SDS011;69705;44.686;37.628;2023-08-20T11:02:56;7.07;;;2.55;;
76856;SDS011;69705;44.686;37.628;2023-08-20T11:05:25;7.47;;;2.40;;
76856;SDS011;69705;44.686;37.628;2023-08-20T11:07:52;8.23;;;2.40;;
76856;SDS011;69705;44.686;37.628;2023-08-20T11:10:19;7.25;;;2.40;;
76856;SDS011;69705;44.686;37.628;2023-08-20T11:12:47;7.72;;;2.50;;
76856;SDS011;69705;44.686;37.628;2023-08-20T11:15:14;7.28;;;2.47;;
76856;SDS011;69705;44.686;37.628;2023-08-20T11:17:42;8.15;;;2.33;;
76856;SDS011;69705;44.686;37.628;2023-08-20T11:20:13;7.07;;;2.37;;
76856;SDS011;69705;44.686;37.628;2023-08-20T11:22:42;6.10;;;2.22;;
76856;SDS011;69705;44.686;37.628;2023-08-20T11:25:10;6.85;;;2.20;;
76856;SDS011;69705;44.686;37.628;2023-08-20T11:27:42;9.05;;;2.60;;
76856;SDS011;69705;44.686;37.628;2023-08-20T11:30:11;8.27;;;2.40;;
76856;SDS011;69705;44.686;37.628;2023-08-20T11:32:39;8.57;;;2.37;;
76856;SDS011;69705;44.686;37.628;2023-08-20T11:35:07;8.90;;;2.33;;
76856;SDS011;69705;44.686;37.628;2023-08-20T11:37:34;8.77;;;2.50;;
76856;SDS011;69705;44.686;37.628;2023-08-20T11:40:01;6.95;;;2.13;;
76856;SDS011;69705;44.686;37.628;2023-08-20T11:42:29;6.07;;;2.22;;
76856;SDS011;69705;44.686;37.628;2023-08-20T11:44:56;7.13;;;2.60;;
76856;SDS011;69705;44.686;37.628;2023-08-20T11:47:24;11.45;;;2.67;;
76856;SDS011;69705;44.686;37.628;2023-08-20T11:50:03;7.28;;;2.40;;
76856;SDS011;69705;44.686;37.628;2023-08-20T11:52:32;9.23;;;2.30;;
76856;SDS011;69705;44.686;37.628;2023-08-20T11:55:00;5.22;;;2.28;;
76856;SDS011;69705;44.686;37.628;2023-08-20T11:57:29;8.87;;;2.30;;
76856;SDS011;69705;44.686;37.628;2023-08-20T12:00:04;7.80;;;2.30;;
76856;SDS011;69705;44.686;37.628;2023-08-20T12:02:42;7.20;;;2.40;;
76856;SDS011;69705;44.686;37.628;2023-08-20T12:05:09;9.23;;;2.60;;
76856;SDS011;69705;44.686;37.628;2023-08-20T12:07:36;9.48;;;2.28;;
76856;SDS011;69705;44.686;37.628;2023-08-20T12:10:21;6.87;;;2.40;;
76856;SDS011;69705;44.686;37.628;2023-08-20T12:12:49;13.50;;;2.70;;
76856;SDS011;69705;44.686;37.628;2023-08-20T12:15:16;5.25;;;2.05;;
76856;SDS011;69705;44.686;37.628;2023-08-20T12:20:27;8.45;;;3.13;;
76856;SDS011;69705;44.686;37.628;2023-08-20T12:22:56;8.53;;;3.17;;
76856;SDS011;69705;44.686;37.628;2023-08-20T12:25:24;7.10;;;2.50;;
76856;SDS011;69705;44.686;37.628;2023-08-20T12:27:51;7.18;;;2.40;;
76856;SDS011;69705;44.686;37.628;2023-08-20T12:30:18;5.85;;;2.10;;
76856;SDS011;69705;44.686;37.628;2023-08-20T12:32:45;10.02;;;2.30;;
76856;SDS011;69705;44.686;37.628;2023-08-20T12:35:13;11.23;;;2.33;;
76856;SDS011;69705;44.686;37.628;2023-08-20T12:37:40;6.68;;;2.53;;
76856;SDS011;69705;44.686;37.628;2023-08-20T12:40:07;8.07;;;2.42;;
76856;SDS011;69705;44.686;37.628;2023-08-20T12:42:37;8.85;;;2.20;;
76856;SDS011;69705;44.686;37.628;2023-08-20T12:45:07;5.10;;;2.05;;
76856;SDS011;69705;44.686;37.628;2023-08-20T12:47:36;10.33;;;2.43;;
76856;SDS011;69705;44.686;37.628;2023-08-20T12:50:02;7.47;;;2.33;;
76856;SDS011;69705;44.686;37.628;2023-08-20T12:52:30;6.55;;;2.20;;
76856;SDS011;69705;44.686;37.628;2023-08-20T12:54:58;7.53;;;2.30;;
76856;SDS011;69705;44.686;37.628;2023-08-20T12:57:24;8.80;;;2.25;;
76856;SDS011;69705;44.686;37.628;2023-08-20T12:59:51;6.63;;;1.93;;
76856;SDS011;69705;44.686;37.628;2023-08-20T13:02:19;6.53;;;2.13;;
76856;SDS011;69705;44.686;37.628;2023-08-20T13:04:47;6.97;;;2.10;;
76856;SDS011;69705;44.686;37.628;2023-08-20T13:07:14;7.03;;;2.20;;
76856;SDS011;69705;44.686;37.628;2023-08-20T13:09:41;6.93;;;2.40;;
76856;SDS011;69705;44.686;37.628;2023-08-20T13:12:09;5.83;;;2.20;;
76856;SDS011;69705;44.686;37.628;2023-08-20T13:14:39;5.70;;;2.17;;
76856;SDS011;69705;44.686;37.628;2023-08-20T13:17:07;9.50;;;2.40;;
76856;SDS011;69705;44.686;37.628;2023-08-20T13:19:34;6.15;;;2.00;;
76856;SDS011;69705;44.686;37.628;2023-08-20T13:22:01;7.93;;;2.72;;
76856;SDS011;69705;44.686;37.628;2023-08-20T13:24:28;11.10;;;2.40;;
76856;SDS011;69705;44.686;37.628;2023-08-20T13:26:54;6.18;;;2.25;;
76856;SDS011;69705;44.686;37.628;2023-08-20T13:29:21;9.13;;;2.95;;
76856;SDS011;69705;44.686;37.628;2023-08-20T13:31:48;6.30;;;2.08;;
76856;SDS011;69705;44.686;37.628;2023-08-20T13:34:15;9.20;;;2.20;;
76856;SDS011;69705;44.686;37.628;2023-08-20T13:36:41;7.73;;;2.40;;
76856;SDS011;69705;44.686;37.628;2023-08-20T13:39:08;6.68;;;2.28;;
76856;SDS011;69705;44.686;37.628;2023-08-20T13:41:35;7.28;;;2.30;;
76856;SDS011;69705;44.686;37.628;2023-08-20T13:44:01;8.43;;;2.47;;
76856;SDS011;69705;44.686;37.628;2023-08-20T13:46:28;11.15;;;2.65;;
76856;SDS011;69705;44.686;37.628;2023-08-20T13:48:55;7.57;;;2.37;;
76856;SDS011;69705;44.686;37.628;2023-08-20T13:51:22;11.55;;;2.60;;
76856;SDS011;69705;44.686;37.628;2023-08-20T13:53:48;6.70;;;2.10;;
76856;SDS011;69705;44.686;37.628;2023-08-20T13:56:15;10.20;;;2.78;;
76856;SDS011;69705;44.686;37.628;2023-08-20T13:58:42;6.82;;;2.17;;
76856;SDS011;69705;44.686;37.628;2023-08-20T14:01:09;7.40;;;2.30;;
76856;SDS011;69705;44.686;37.628;2023-08-20T14:03:36;8.23;;;2.33;;
76856;SDS011;69705;44.686;37.628;2023-08-20T14:06:02;8.70;;;2.30;;
76856;SDS011;69705;44.686;37.628;2023-08-20T14:08:29;8.60;;;2.55;;
76856;SDS011;69705;44.686;37.628;2023-08-20T14:10:55;9.70;;;2.30;;
76856;SDS011;69705;44.686;37.628;2023-08-20T14:13:22;6.10;;;2.30;;
76856;SDS011;69705;44.686;37.628;2023-08-20T14:15:49;8.40;;;2.28;;
76856;SDS011;69705;44.686;37.628;2023-08-20T14:18:15;8.63;;;2.53;;
76856;SDS011;69705;44.686;37.628;2023-08-20T14:20:42;6.55;;;2.30;;
76856;SDS011;69705;44.686;37.628;2023-08-20T14:23:09;9.65;;;2.40;;
76856;SDS011;69705;44.686;37.628;2023-08-20T14:25:36;11.07;;;2.30;;
76856;SDS011;69705;44.686;37.628;2023-08-20T14:28:02;7.45;;;2.45;;
76856;SDS011;69705;44.686;37.628;2023-08-20T14:30:29;9.90;;;2.60;;
76856;SDS011;69705;44.686;37.628;2023-08-20T14:32:56;6.03;;;2.35;;
76856;SDS011;69705;44.686;37.628;2023-08-20T14:35:22;7.55;;;2.40;;
76856;SDS011;69705;44.686;37.628;2023-08-20T14:37:51;8.53;;;2.70;;
76856;SDS011;69705;44.686;37.628;2023-08-20T14:40:19;7.63;;;2.28;;
76856;SDS011;69705;44.686;37.628;2023-08-20T14:42:46;10.00;;;2.67;;
76856;SDS011;69705;44.686;37.628;2023-08-20T14:45:13;8.43;;;2.58;;
76856;SDS011;69705;44.686;37.628;2023-08-20T14:47:40;14.25;;;2.70;;
76856;SDS011;69705;44.686;37.628;2023-08-20T14:50:06;9.03;;;2.60;;
76856;SDS011;69705;44.686;37.628;2023-08-20T14:52:34;9.15;;;2.58;;